Terminal Aerodrome Forecast
Issued by NWS Goodland, KS

Home | Current Version | Previous Version | Text Only | Print | Product List | Glossary On
Versions: 1 2 3 4 5 6 7 8 9 10 11 12 13 14 15 16 17 18 19 20 21
000
FTUS43 KGLD 122300
TAFGLD
TAF
KGLD 122340Z 1300/1324 01008KT P6SM SCT050
     FM130600 VRB05KT P6SM FEW100 SCT250
     FM131500 03007KT P6SM SCT100
     FM132100 06008KT P6SM SCT050=

USA.gov is the U.S. government's official web portal to all federal, state and local government web resources and services.